Weather at McChord Air Force Base

Public forecast

Using degrees Fahrenheit for public forecast. Weather courtesy of forecast.io.

Current aviation weather report (METAR) for McChord Air Force Base

Report is more than 2 hours old.

2024/06/24 20:55 (retrieved 2 hours ago)

KTCM 242055Z AUTO 02004KT 10SM BKN042 20/09 A3009 RMK AO2 SLP193 T01960092 58002

Aviation forecast (TAF) for McChord Air Force Base

2024/06/24 21:18 (retrieved 2 hours ago)

TAF TAF KTCM 242110Z 2421/2603 02006KT 9999 SCT045 QNH3005INS BECMG 2500/2501 35010G15KT 9999 SCT055 QNH3002INS BECMG 2506/2507 01008KT 9999 SKC QNH2993INS BECMG 2522/2523 32005KT 9999 SKC QNH2990INS TX24/2521Z TN11/2512Z